Branch, Canada
Current Conditions -  °F | °C
As of 10:00 AM on Thursday 23 Oct 2014 (Local Time) from CYYT Reporting Station
Broken Clouds Broken Clouds  
Wind Chill: 44°   Ceiling: 19000
Heat Index: 46°   Visibility: 15mi
Dew Point: 41°   Wind: 5mph
Humidity: 81%   Direction: 110°ESE
Pressure: 30.4"   Gusts: NA
Location:  46.88°N, 53.97°W
Report Text: CYYT 231200Z 11004KT 15SM FEW030 BKN190 08/05 A3040 RMK SC1AC6 SLP300
Loading
Personal Weather Stations






























Interactive Weather Map
Tropical Storm Tracking
New forecast layout! Learn more

10-Day Weather Forecast

Advertisements
Track Severe Weather on mobile